createdAt,value
2019-02-23T00:02:01.158Z,5.36
2019-02-23T00:04:29.988Z,5.30
2019-02-23T00:06:59.006Z,5.28
2019-02-23T00:09:27.888Z,5.20
2019-02-23T00:11:56.924Z,5.11
2019-02-23T00:14:25.794Z,5.10
2019-02-23T00:16:54.778Z,5.09
2019-02-23T00:19:25.043Z,5.07
2019-02-23T00:21:54.357Z,5.00
2019-02-23T00:24:23.380Z,4.98
2019-02-23T00:26:52.245Z,4.92
2019-02-23T00:29:21.360Z,4.91
2019-02-23T00:31:50.256Z,4.86
2019-02-23T00:34:19.341Z,4.84
2019-02-23T00:36:48.277Z,4.82
2019-02-23T00:39:17.120Z,4.85
2019-02-23T00:41:46.035Z,4.86
2019-02-23T00:44:14.879Z,4.74
2019-02-23T00:46:43.936Z,4.68
2019-02-23T00:49:12.873Z,4.57
2019-02-23T00:51:41.785Z,4.61
2019-02-23T00:54:10.793Z,4.53
2019-02-23T00:56:39.689Z,4.55
2019-02-23T00:59:08.661Z,4.39
2019-02-23T01:01:37.620Z,4.34
2019-02-23T01:04:06.620Z,4.32
2019-02-23T01:06:35.712Z,4.38
2019-02-23T01:09:05.151Z,4.28
2019-02-23T01:11:34.039Z,4.34
2019-02-23T01:14:03.468Z,4.29
2019-02-23T01:16:32.547Z,4.24
2019-02-23T01:19:01.320Z,4.25
2019-02-23T01:21:30.338Z,4.24
2019-02-23T01:23:59.263Z,4.21
2019-02-23T01:26:28.453Z,4.19
2019-02-23T01:28:57.389Z,4.19
2019-02-23T01:31:26.319Z,4.15
2019-02-23T01:33:55.405Z,4.16
2019-02-23T01:36:24.357Z,4.19
2019-02-23T01:38:53.353Z,4.08
2019-02-23T01:41:22.444Z,4.07
2019-02-23T01:43:51.309Z,4.08
2019-02-23T01:46:20.289Z,4.15
2019-02-23T01:48:49.442Z,4.20
2019-02-23T01:51:19.586Z,4.19
2019-02-23T01:53:48.667Z,4.19
2019-02-23T01:56:17.591Z,4.25
2019-02-23T01:58:46.568Z,4.25
2019-02-23T02:01:15.567Z,4.23
2019-02-23T02:03:44.585Z,4.28
2019-02-23T02:06:13.621Z,4.34
2019-02-23T02:08:42.813Z,4.46
2019-02-23T02:11:12.022Z,4.39
2019-02-23T02:13:41.235Z,4.53
2019-02-23T02:16:10.311Z,4.57
2019-02-23T02:18:39.539Z,4.63
2019-02-23T02:21:08.376Z,4.62
2019-02-23T02:23:37.180Z,4.79
2019-02-23T02:26:06.132Z,4.83
2019-02-23T02:28:35.024Z,4.79
2019-02-23T02:31:04.011Z,4.83
2019-02-23T02:33:33.042Z,4.80
2019-02-23T02:36:02.045Z,4.80
2019-02-23T02:38:30.989Z,4.87
2019-02-23T02:40:59.752Z,4.85
2019-02-23T02:43:28.692Z,4.78
2019-02-23T02:45:57.594Z,4.97
2019-02-23T02:48:26.482Z,4.93
2019-02-23T02:50:55.568Z,4.93
2019-02-23T02:53:24.382Z,4.90
2019-02-23T02:55:53.158Z,4.75
2019-02-23T02:58:22.083Z,4.79
2019-02-23T03:00:50.970Z,4.81
2019-02-23T03:03:19.830Z,4.77
2019-02-23T03:05:48.642Z,4.74
2019-02-23T03:08:17.755Z,4.73
2019-02-23T03:10:46.705Z,4.60
2019-02-23T03:13:15.771Z,4.47
2019-02-23T03:15:44.556Z,4.34
2019-02-23T03:18:13.492Z,4.30
2019-02-23T03:20:42.373Z,4.17
2019-02-23T03:23:11.196Z,4.10
2019-02-23T03:25:40.103Z,4.07
2019-02-23T03:28:08.964Z,4.03
2019-02-23T03:30:37.842Z,4.09
2019-02-23T03:33:06.841Z,4.07
2019-02-23T03:35:35.761Z,4.08
2019-02-23T03:38:05.435Z,4.08
2019-02-23T03:40:34.733Z,3.99
2019-02-23T03:43:03.779Z,4.00
2019-02-23T03:45:32.721Z,3.96
2019-02-23T03:48:01.650Z,3.78
2019-02-23T03:50:30.491Z,3.73
2019-02-23T03:52:59.549Z,3.67
2019-02-23T03:55:28.547Z,3.67
2019-02-23T03:57:57.463Z,3.48
2019-02-23T04:00:26.459Z,3.43
2019-02-23T04:02:55.365Z,3.41
2019-02-23T04:05:24.275Z,3.31
2019-02-23T04:07:53.257Z,3.32
2019-02-23T04:10:24.880Z,3.33
2019-02-23T04:12:53.806Z,3.25
2019-02-23T04:15:22.720Z,3.20
2019-02-23T04:17:51.642Z,3.23
2019-02-23T04:20:20.682Z,3.19
2019-02-23T04:22:49.722Z,3.15
2019-02-23T04:25:18.705Z,3.09
2019-02-23T04:27:47.644Z,3.10
2019-02-23T04:30:16.599Z,3.07
2019-02-23T04:32:45.659Z,3.00
2019-02-23T04:35:14.851Z,2.90
2019-02-23T04:37:43.881Z,2.91
2019-02-23T04:40:12.876Z,2.80
2019-02-23T04:42:41.986Z,2.79
2019-02-23T04:45:12.168Z,2.74
2019-02-23T04:47:41.209Z,2.77
2019-02-23T04:50:10.348Z,2.79
2019-02-23T04:52:39.394Z,2.73
2019-02-23T04:55:08.430Z,2.60
2019-02-23T04:57:37.496Z,2.56
2019-02-23T05:00:07.679Z,2.55
2019-02-23T05:02:38.252Z,2.54
2019-02-23T05:05:08.271Z,2.55
2019-02-23T05:07:37.307Z,2.43
2019-02-23T05:10:06.649Z,2.39
2019-02-23T05:12:35.684Z,2.28
2019-02-23T05:15:06.764Z,2.33
2019-02-23T05:17:35.831Z,2.24
2019-02-23T05:20:05.233Z,2.21
2019-02-23T05:22:34.354Z,2.15
2019-02-23T05:25:06.354Z,2.09
2019-02-23T05:27:35.645Z,2.05
2019-02-23T05:30:06.478Z,2.08
2019-02-23T05:32:36.803Z,2.08
2019-02-23T05:35:06.464Z,2.02
2019-02-23T05:37:35.411Z,2.01
2019-02-23T05:40:06.053Z,2.01
2019-02-23T05:42:38.183Z,1.98
2019-02-23T05:45:07.386Z,1.96
2019-02-23T05:47:37.614Z,1.93
2019-02-23T05:50:08.807Z,1.89
2019-02-23T05:52:37.642Z,1.83
2019-02-23T05:55:10.054Z,1.66
2019-02-23T05:57:40.600Z,1.88
2019-02-23T06:00:10.822Z,1.76
2019-02-23T06:02:44.778Z,1.82
2019-02-23T06:05:12.397Z,1.69
2019-02-23T06:07:43.873Z,1.64
2019-02-23T06:10:14.564Z,1.66
2019-02-23T06:12:45.446Z,1.63
2019-02-23T06:15:15.770Z,1.63
2019-02-23T06:17:44.826Z,1.63
2019-02-23T06:20:15.401Z,1.65
2019-02-23T06:22:46.941Z,1.60
2019-02-23T06:25:18.313Z,1.52
2019-02-23T06:27:48.525Z,1.56
2019-02-23T06:30:18.514Z,1.50
2019-02-23T06:32:48.753Z,1.54
2019-02-23T06:35:17.715Z,1.58
2019-02-23T06:37:46.731Z,1.60
2019-02-23T06:40:15.791Z,1.62
2019-02-23T06:42:44.730Z,1.63
2019-02-23T06:45:13.770Z,1.70
2019-02-23T06:47:44.389Z,1.76
2019-02-23T06:50:13.509Z,1.74
2019-02-23T06:52:42.581Z,1.74
2019-02-23T06:55:11.619Z,1.76
2019-02-23T06:57:42.303Z,1.79
2019-02-23T07:00:13.855Z,1.84
2019-02-23T07:02:42.945Z,1.89
2019-02-23T07:05:12.021Z,1.84
2019-02-23T07:07:41.104Z,1.93
2019-02-23T07:10:11.493Z,1.95
2019-02-23T07:12:42.070Z,1.92
2019-02-23T07:15:11.767Z,2.19
2019-02-23T07:17:40.867Z,2.23
2019-02-23T07:20:11.080Z,2.18
2019-02-23T07:22:40.238Z,2.25
2019-02-23T07:25:09.442Z,2.37
2019-02-23T07:27:38.471Z,2.40
2019-02-23T07:30:10.136Z,2.36
2019-02-23T07:32:41.248Z,2.47
2019-02-23T07:35:15.273Z,2.47
2019-02-23T07:37:49.335Z,2.49
2019-02-23T07:40:18.423Z,2.55
2019-02-23T07:42:48.871Z,2.60
2019-02-23T07:45:18.181Z,2.64
2019-02-23T07:47:48.059Z,2.70
2019-02-23T07:50:17.098Z,2.75
2019-02-23T07:52:48.226Z,2.91
2019-02-23T07:55:17.247Z,2.95
2019-02-23T07:57:46.330Z,3.06
2019-02-23T08:00:16.849Z,3.04
2019-02-23T08:02:45.990Z,3.00
2019-02-23T08:05:15.157Z,3.04
2019-02-23T08:07:44.237Z,2.96
2019-02-23T08:10:14.435Z,3.06
2019-02-23T08:12:43.483Z,3.03
2019-02-23T08:15:13.885Z,3.14
2019-02-23T08:17:42.823Z,3.21
2019-02-23T08:20:13.410Z,3.14
2019-02-23T08:22:43.697Z,3.25
2019-02-23T08:25:12.944Z,3.25
2019-02-23T08:27:42.726Z,3.35
2019-02-23T08:30:15.560Z,3.35
2019-02-23T08:32:44.657Z,3.16
2019-02-23T08:35:13.706Z,3.18
2019-02-23T08:37:42.921Z,3.29
2019-02-23T08:40:12.411Z,3.44
2019-02-23T08:42:41.455Z,3.52
2019-02-23T08:45:10.672Z,3.41
2019-02-23T08:47:42.362Z,3.38
2019-02-23T08:50:14.253Z,3.51
2019-02-23T08:52:49.335Z,3.47
2019-02-23T08:55:14.181Z,3.44
2019-02-23T08:57:44.513Z,3.59
2019-02-23T09:00:15.262Z,3.79
2019-02-23T09:02:48.243Z,3.80
2019-02-23T09:05:18.679Z,3.82
2019-02-23T09:07:50.810Z,3.72
2019-02-23T09:10:22.939Z,3.81
2019-02-23T09:12:52.101Z,3.59
2019-02-23T09:15:22.977Z,3.62
2019-02-23T09:17:52.234Z,3.77
2019-02-23T09:20:29.098Z,3.84
2019-02-23T09:23:00.076Z,3.84
2019-02-23T09:25:24.341Z,3.87
2019-02-23T09:27:54.789Z,3.97
2019-02-23T09:30:26.969Z,4.19
2019-02-23T09:32:56.286Z,4.19
2019-02-23T09:35:29.122Z,4.24
2019-02-23T09:37:58.397Z,4.54
2019-02-23T09:40:27.570Z,4.32
2019-02-23T09:42:56.851Z,4.29
2019-02-23T09:45:26.216Z,4.50
2019-02-23T09:47:55.486Z,4.68
2019-02-23T09:50:24.681Z,4.55
2019-02-23T09:52:53.845Z,4.57
2019-02-23T09:55:22.945Z,4.65
2019-02-23T09:57:52.511Z,4.17
2019-02-23T10:00:21.615Z,4.77
2019-02-23T10:02:50.902Z,4.95
2019-02-23T10:05:21.609Z,4.96
2019-02-23T10:07:50.688Z,5.08
2019-02-23T10:10:19.717Z,5.24
2019-02-23T10:12:48.881Z,5.28
2019-02-23T10:15:18.051Z,5.19
2019-02-23T10:17:48.445Z,5.33
2019-02-23T10:20:17.569Z,5.31
2019-02-23T10:22:46.734Z,5.27
2019-02-23T10:25:18.055Z,5.37
2019-02-23T10:27:48.261Z,5.27
2019-02-23T10:30:18.829Z,5.39
2019-02-23T10:32:47.811Z,5.36
2019-02-23T10:35:16.739Z,5.37
2019-02-23T10:37:45.550Z,5.40
2019-02-23T10:40:14.748Z,5.50
2019-02-23T10:42:43.766Z,5.51
2019-02-23T10:45:13.105Z,5.47
2019-02-23T10:47:42.023Z,5.77
2019-02-23T10:50:11.098Z,5.81
2019-02-23T10:52:40.074Z,5.99
2019-02-23T10:55:10.188Z,5.99
2019-02-23T10:57:39.215Z,5.97
2019-02-23T11:00:14.785Z,6.19
2019-02-23T11:02:43.748Z,6.48
2019-02-23T11:05:12.916Z,6.52
2019-02-23T11:07:41.981Z,6.55
2019-02-23T11:10:11.297Z,6.60
2019-02-23T11:12:40.352Z,6.61
2019-02-23T11:15:10.512Z,6.66
2019-02-23T11:17:39.572Z,6.51
2019-02-23T11:20:10.103Z,6.52
2019-02-23T11:22:39.285Z,6.70
2019-02-23T11:25:08.803Z,6.81
2019-02-23T11:27:38.737Z,6.81
2019-02-23T11:30:08.972Z,6.80
2019-02-23T11:32:38.026Z,6.92
2019-02-23T11:35:07.770Z,6.91
2019-02-23T11:37:36.794Z,7.10
2019-02-23T11:40:06.564Z,7.04
2019-02-23T11:42:35.500Z,7.19
2019-02-23T11:45:04.732Z,7.27
2019-02-23T11:47:33.768Z,7.37
2019-02-23T11:50:02.727Z,7.63
2019-02-23T11:52:31.630Z,7.84
2019-02-23T11:55:00.571Z,8.10
2019-02-23T11:57:29.629Z,7.64
2019-02-23T11:59:58.468Z,7.64
2019-02-23T12:02:27.379Z,7.85
2019-02-23T12:04:56.369Z,7.98
2019-02-23T12:07:25.354Z,8.26
2019-02-23T12:09:54.246Z,8.27
2019-02-23T12:12:23.233Z,8.05
2019-02-23T12:14:52.148Z,8.18
2019-02-23T12:17:21.246Z,8.33
2019-02-23T12:19:50.062Z,8.50
2019-02-23T12:22:19.035Z,8.59
2019-02-23T12:24:48.100Z,8.47
2019-02-23T12:27:17.011Z,8.54
2019-02-23T12:29:45.986Z,8.58
2019-02-23T12:32:15.019Z,8.83
2019-02-23T12:34:43.880Z,8.62
2019-02-23T12:37:12.915Z,8.68
2019-02-23T12:39:41.850Z,8.79
2019-02-23T12:42:10.764Z,9.11
2019-02-23T12:44:39.576Z,9.19
2019-02-23T12:47:08.482Z,9.09
2019-02-23T12:49:37.428Z,8.97
2019-02-23T12:52:06.431Z,8.86
2019-02-23T12:54:35.425Z,8.74
2019-02-23T12:57:04.407Z,8.70
2019-02-23T12:59:33.466Z,8.77
2019-02-23T13:02:02.339Z,8.67
2019-02-23T13:04:31.541Z,8.71
2019-02-23T13:07:00.302Z,8.81
2019-02-23T13:09:32.034Z,8.87
2019-02-23T13:12:14.371Z,9.05
2019-02-23T13:15:00.667Z,9.21
2019-02-23T13:17:58.696Z,9.40
2019-02-23T13:21:11.968Z,9.40
2019-02-23T13:24:07.101Z,9.16
2019-02-23T13:27:16.616Z,9.25
2019-02-23T13:30:21.784Z,9.49
2019-02-23T13:33:33.062Z,9.25
2019-02-23T13:36:51.914Z,9.58
2019-02-23T13:39:33.138Z,9.80
2019-02-23T13:42:31.995Z,9.54
2019-02-23T13:45:25.125Z,9.81
2019-02-23T13:48:31.183Z,9.80
2019-02-23T13:51:32.941Z,10.09
2019-02-23T13:54:21.110Z,10.34
2019-02-23T13:57:11.241Z,9.97
2019-02-23T14:00:21.625Z,10.19
2019-02-23T14:03:25.753Z,10.10
2019-02-23T14:06:14.433Z,10.20
2019-02-23T14:09:45.955Z,10.41
2019-02-23T14:12:41.400Z,10.08
2019-02-23T14:15:40.429Z,10.45
2019-02-23T14:18:36.208Z,10.52
2019-02-23T14:21:34.454Z,10.96
2019-02-23T14:24:38.421Z,11.17
2019-02-23T14:27:38.652Z,11.06
2019-02-23T14:31:04.067Z,10.79
2019-02-23T14:34:00.994Z,10.73
2019-02-23T14:36:42.583Z,10.80
2019-02-23T14:39:42.907Z,10.41
2019-02-23T14:42:20.586Z,10.68
2019-02-23T14:45:25.663Z,10.50
2019-02-23T14:48:32.843Z,10.81
2019-02-23T14:51:23.899Z,10.83
2019-02-23T14:54:04.712Z,10.61
2019-02-23T14:57:17.237Z,10.49
2019-02-23T15:00:07.693Z,10.86
2019-02-23T15:03:19.514Z,10.88
2019-02-23T15:06:10.744Z,11.08
2019-02-23T15:08:52.669Z,11.09
2019-02-23T15:12:07.114Z,10.53
2019-02-23T15:15:25.047Z,10.92
2019-02-23T15:18:29.828Z,11.18
2019-02-23T15:21:25.997Z,11.13
2019-02-23T15:24:31.257Z,11.23
2019-02-23T15:27:37.721Z,11.21
2019-02-23T15:30:50.888Z,10.75
2019-02-23T15:34:15.172Z,10.71
2019-02-23T15:37:08.921Z,10.46
2019-02-23T15:40:13.644Z,10.09
2019-02-23T15:43:25.708Z,10.19
2019-02-23T15:46:05.713Z,9.98
2019-02-23T15:49:17.515Z,9.98
2019-02-23T15:51:46.444Z,9.91
2019-02-23T15:54:15.476Z,9.71
2019-02-23T15:56:44.374Z,9.65
2019-02-23T15:59:13.297Z,9.57
2019-02-23T16:01:42.263Z,9.46
2019-02-23T16:04:11.207Z,9.18
2019-02-23T16:06:40.168Z,9.11
2019-02-23T16:09:09.163Z,8.94
2019-02-23T16:11:38.142Z,8.94
2019-02-23T16:14:07.177Z,8.82
2019-02-23T16:16:36.147Z,8.46
2019-02-23T16:19:05.422Z,8.57
2019-02-23T16:21:34.290Z,8.63
2019-02-23T16:24:03.250Z,8.49
2019-02-23T16:26:32.306Z,8.36
2019-02-23T16:29:01.187Z,8.36
2019-02-23T16:31:30.205Z,8.24
2019-02-23T16:33:59.108Z,8.25
2019-02-23T16:36:28.077Z,8.13
2019-02-23T16:38:57.142Z,8.01
2019-02-23T16:41:26.104Z,8.01
2019-02-23T16:43:54.943Z,7.88
2019-02-23T16:46:23.937Z,7.78
2019-02-23T16:48:52.818Z,7.63
2019-02-23T16:51:21.826Z,7.60
2019-02-23T16:53:50.662Z,7.61
2019-02-23T16:56:19.656Z,7.53
2019-02-23T16:58:48.771Z,7.49
2019-02-23T17:01:17.669Z,7.38
2019-02-23T17:03:46.673Z,7.32
2019-02-23T17:06:15.569Z,7.26
2019-02-23T17:08:44.829Z,7.28
2019-02-23T17:11:13.852Z,7.19
2019-02-23T17:13:42.837Z,7.15
2019-02-23T17:16:11.696Z,7.06
2019-02-23T17:18:40.679Z,7.02
2019-02-23T17:21:09.930Z,7.01
2019-02-23T17:23:40.160Z,6.92
2019-02-23T17:26:09.277Z,6.72
2019-02-23T17:28:38.233Z,6.73
2019-02-23T17:31:07.037Z,6.61
2019-02-23T17:33:36.470Z,6.45
2019-02-23T17:36:05.508Z,6.28
2019-02-23T17:38:35.642Z,6.16
2019-02-23T17:41:05.017Z,6.05
2019-02-23T17:43:33.819Z,6.06
2019-02-23T17:46:02.730Z,6.21
2019-02-23T17:51:00.573Z,5.67
2019-02-23T17:53:29.383Z,6.04
2019-02-23T17:55:58.307Z,5.99
2019-02-23T17:58:27.311Z,5.95
2019-02-23T18:00:57.070Z,5.94
2019-02-23T18:03:25.968Z,5.90
2019-02-23T18:05:54.851Z,5.84
2019-02-23T18:08:23.734Z,5.87
2019-02-23T18:10:52.774Z,5.76
2019-02-23T18:13:21.634Z,5.69
2019-02-23T18:15:50.551Z,5.69
2019-02-23T18:18:19.546Z,5.62
2019-02-23T18:20:48.539Z,5.56
2019-02-23T18:23:17.415Z,5.57
2019-02-23T18:25:46.320Z,5.60
2019-02-23T18:28:15.164Z,5.69
2019-02-23T18:30:44.140Z,5.75
2019-02-23T18:33:13.091Z,5.81
2019-02-23T18:35:41.888Z,5.86
2019-02-23T18:38:10.802Z,5.80
2019-02-23T18:40:39.576Z,5.82
2019-02-23T18:43:08.570Z,5.70
2019-02-23T18:45:37.561Z,5.70
2019-02-23T18:48:06.356Z,5.74
2019-02-23T18:50:35.327Z,5.71
2019-02-23T18:53:04.283Z,5.67
2019-02-23T18:55:40.894Z,5.69
2019-02-23T18:58:03.734Z,5.68
2019-02-23T19:00:32.759Z,5.68
2019-02-23T19:03:01.611Z,5.70
2019-02-23T19:05:30.658Z,5.63
2019-02-23T19:07:59.503Z,5.64
2019-02-23T19:10:28.338Z,5.62
2019-02-23T19:12:57.292Z,5.58
2019-02-23T19:15:26.177Z,5.48
2019-02-23T19:17:55.259Z,5.42
2019-02-23T19:20:24.164Z,5.45
2019-02-23T19:22:53.143Z,5.37
2019-02-23T19:25:22.048Z,5.39
2019-02-23T19:27:51.107Z,5.37
2019-02-23T19:30:20.589Z,5.25
2019-02-23T19:32:49.660Z,5.20
2019-02-23T19:35:18.760Z,5.15
2019-02-23T19:37:47.811Z,5.10
2019-02-23T19:40:16.882Z,5.03
2019-02-23T19:42:45.826Z,5.02
2019-02-23T19:45:14.862Z,4.95
2019-02-23T19:47:43.694Z,4.87
2019-02-23T19:50:19.313Z,4.79
2019-02-23T19:52:48.305Z,4.69
2019-02-23T19:55:17.543Z,4.55
2019-02-23T19:57:46.572Z,4.62
2019-02-23T20:00:15.625Z,4.55
2019-02-23T20:02:44.526Z,4.49
2019-02-23T20:05:13.571Z,4.35
2019-02-23T20:07:42.440Z,4.20
2019-02-23T20:10:11.555Z,4.16
2019-02-23T20:12:40.760Z,4.06
2019-02-23T20:15:10.368Z,3.97
2019-02-23T20:17:49.062Z,3.88
2019-02-23T20:20:18.013Z,3.80
2019-02-23T20:22:46.986Z,3.81
2019-02-23T20:25:15.943Z,3.69
2019-02-23T20:27:44.852Z,3.66
2019-02-23T20:30:13.843Z,3.51
2019-02-23T20:32:42.787Z,3.54
2019-02-23T20:35:11.858Z,3.64
2019-02-23T20:37:40.852Z,3.66
2019-02-23T20:40:09.868Z,3.85
2019-02-23T20:42:38.763Z,3.80
2019-02-23T20:45:07.720Z,3.79
2019-02-23T20:47:36.745Z,3.92
2019-02-23T20:50:06.505Z,3.81
2019-02-23T20:52:35.399Z,3.79
2019-02-23T20:55:04.647Z,3.81
2019-02-23T20:57:33.658Z,3.80
2019-02-23T21:00:02.763Z,3.69
2019-02-23T21:02:31.809Z,3.75
2019-02-23T21:05:00.823Z,3.75
2019-02-23T21:07:29.665Z,3.62
2019-02-23T21:09:58.585Z,3.46
2019-02-23T21:12:28.555Z,3.19
2019-02-23T21:14:57.528Z,3.18
2019-02-23T21:17:26.378Z,3.21
2019-02-23T21:19:55.315Z,3.13
2019-02-23T21:22:24.219Z,3.07
2019-02-23T21:24:53.157Z,2.95
2019-02-23T21:27:22.053Z,2.95
2019-02-23T21:29:51.056Z,3.05
2019-02-23T21:32:20.071Z,3.04
2019-02-23T21:34:49.143Z,3.14
2019-02-23T21:37:17.979Z,3.33
2019-02-23T21:39:46.940Z,3.41
2019-02-23T21:42:15.948Z,3.29
2019-02-23T21:44:44.919Z,3.25
2019-02-23T21:47:13.826Z,3.22
2019-02-23T21:49:42.830Z,3.20
2019-02-23T21:52:11.856Z,3.37
2019-02-23T21:54:40.989Z,3.36
2019-02-23T21:57:09.863Z,3.32
2019-02-23T21:59:38.788Z,3.43
2019-02-23T22:02:07.691Z,3.55
2019-02-23T22:04:36.792Z,3.58
2019-02-23T22:07:05.840Z,3.74
2019-02-23T22:09:34.877Z,3.71
2019-02-23T22:12:03.759Z,3.74
2019-02-23T22:14:32.583Z,3.77
2019-02-23T22:17:01.461Z,3.67
2019-02-23T22:19:31.703Z,3.66
2019-02-23T22:22:00.661Z,3.44
2019-02-23T22:24:29.604Z,3.45
2019-02-23T22:26:58.505Z,3.46
2019-02-23T22:29:27.415Z,3.51
2019-02-23T22:31:56.328Z,3.41
2019-02-23T22:34:25.298Z,3.44
2019-02-23T22:36:54.215Z,3.59
2019-02-23T22:39:23.104Z,3.60
2019-02-23T22:41:52.062Z,3.52
2019-02-23T22:44:20.991Z,3.39
2019-02-23T22:46:49.915Z,3.35
2019-02-23T22:49:18.797Z,3.10
2019-02-23T22:51:47.681Z,3.09
2019-02-23T22:54:16.830Z,3.22
2019-02-23T22:56:46.036Z,3.28
2019-02-23T22:59:15.041Z,3.37
2019-02-23T23:01:44.055Z,3.25
2019-02-23T23:04:12.921Z,3.25
2019-02-23T23:06:41.931Z,3.16
2019-02-23T23:09:14.826Z,3.10
2019-02-23T23:11:43.678Z,2.92
2019-02-23T23:14:12.668Z,2.61
2019-02-23T23:16:41.459Z,2.95
2019-02-23T23:19:10.371Z,3.07
2019-02-23T23:21:39.349Z,3.05
2019-02-23T23:24:08.256Z,3.06
2019-02-23T23:26:37.206Z,3.14
2019-02-23T23:29:06.197Z,3.14
2019-02-23T23:31:35.264Z,3.14
2019-02-23T23:34:04.117Z,3.21
2019-02-23T23:36:33.272Z,3.11
2019-02-23T23:39:02.067Z,3.29
2019-02-23T23:41:31.037Z,3.20
2019-02-23T23:43:59.849Z,3.16
2019-02-23T23:46:28.967Z,3.21
2019-02-23T23:48:57.744Z,3.27
2019-02-23T23:51:26.566Z,3.28
2019-02-23T23:53:55.410Z,3.32
2019-02-23T23:56:24.404Z,3.27
2019-02-23T23:58:53.343Z,3.21
